sensor_id;sensor_type;location;lat;lon;timestamp;P1;durP1;ratioP1;P2;durP2;ratioP2
12177;SDS011;6152;48.728;9.256;2023-02-08T00:00:21;5.23;;;3.40;;
12177;SDS011;6152;48.728;9.256;2023-02-08T00:02:48;6.17;;;3.93;;
12177;SDS011;6152;48.728;9.256;2023-02-08T00:05:14;7.13;;;4.17;;
12177;SDS011;6152;48.728;9.256;2023-02-08T00:07:41;6.67;;;4.10;;
12177;SDS011;6152;48.728;9.256;2023-02-08T00:10:07;8.90;;;3.97;;
12177;SDS011;6152;48.728;9.256;2023-02-08T00:12:34;9.20;;;4.13;;
12177;SDS011;6152;48.728;9.256;2023-02-08T00:15:01;9.10;;;4.20;;
12177;SDS011;6152;48.728;9.256;2023-02-08T00:17:28;8.07;;;4.40;;
12177;SDS011;6152;48.728;9.256;2023-02-08T00:19:54;6.50;;;4.23;;
12177;SDS011;6152;48.728;9.256;2023-02-08T00:22:21;7.53;;;4.27;;
12177;SDS011;6152;48.728;9.256;2023-02-08T00:24:48;8.20;;;4.47;;
12177;SDS011;6152;48.728;9.256;2023-02-08T00:27:15;6.93;;;4.53;;
12177;SDS011;6152;48.728;9.256;2023-02-08T00:29:42;7.63;;;4.17;;
12177;SDS011;6152;48.728;9.256;2023-02-08T00:32:08;8.70;;;4.40;;
12177;SDS011;6152;48.728;9.256;2023-02-08T00:34:34;6.57;;;4.07;;
12177;SDS011;6152;48.728;9.256;2023-02-08T00:37:02;7.33;;;4.63;;
12177;SDS011;6152;48.728;9.256;2023-02-08T00:39:29;8.30;;;4.43;;
12177;SDS011;6152;48.728;9.256;2023-02-08T00:41:55;8.23;;;5.40;;
12177;SDS011;6152;48.728;9.256;2023-02-08T00:44:21;10.77;;;5.73;;
12177;SDS011;6152;48.728;9.256;2023-02-08T00:46:48;12.30;;;5.93;;
12177;SDS011;6152;48.728;9.256;2023-02-08T00:49:14;9.37;;;5.27;;
12177;SDS011;6152;48.728;9.256;2023-02-08T00:51:40;10.97;;;5.27;;
12177;SDS011;6152;48.728;9.256;2023-02-08T00:54:10;7.70;;;4.67;;
12177;SDS011;6152;48.728;9.256;2023-02-08T00:56:42;9.37;;;5.03;;
12177;SDS011;6152;48.728;9.256;2023-02-08T00:59:08;8.03;;;4.83;;
12177;SDS011;6152;48.728;9.256;2023-02-08T01:01:35;6.57;;;4.60;;
12177;SDS011;6152;48.728;9.256;2023-02-08T01:04:01;11.07;;;5.07;;
12177;SDS011;6152;48.728;9.256;2023-02-08T01:06:27;6.43;;;3.90;;
12177;SDS011;6152;48.728;9.256;2023-02-08T01:08:53;8.17;;;4.53;;
12177;SDS011;6152;48.728;9.256;2023-02-08T01:11:20;11.97;;;4.27;;
12177;SDS011;6152;48.728;9.256;2023-02-08T01:13:49;7.90;;;4.67;;
12177;SDS011;6152;48.728;9.256;2023-02-08T01:16:19;10.70;;;5.40;;
12177;SDS011;6152;48.728;9.256;2023-02-08T01:18:50;8.53;;;5.50;;
12177;SDS011;6152;48.728;9.256;2023-02-08T01:21:19;7.27;;;4.63;;
12177;SDS011;6152;48.728;9.256;2023-02-08T01:23:47;9.57;;;5.43;;
12177;SDS011;6152;48.728;9.256;2023-02-08T01:26:15;7.43;;;4.70;;
12177;SDS011;6152;48.728;9.256;2023-02-08T01:28:42;12.57;;;5.40;;
12177;SDS011;6152;48.728;9.256;2023-02-08T01:31:10;9.23;;;5.07;;
12177;SDS011;6152;48.728;9.256;2023-02-08T01:33:38;6.60;;;4.50;;
12177;SDS011;6152;48.728;9.256;2023-02-08T01:36:04;7.77;;;4.17;;
12177;SDS011;6152;48.728;9.256;2023-02-08T01:38:31;9.77;;;5.60;;
12177;SDS011;6152;48.728;9.256;2023-02-08T01:40:58;7.17;;;4.30;;
12177;SDS011;6152;48.728;9.256;2023-02-08T01:43:29;8.70;;;5.30;;
12177;SDS011;6152;48.728;9.256;2023-02-08T01:45:57;7.00;;;4.77;;
12177;SDS011;6152;48.728;9.256;2023-02-08T01:48:34;7.43;;;4.30;;
12177;SDS011;6152;48.728;9.256;2023-02-08T01:51:11;7.53;;;4.40;;
12177;SDS011;6152;48.728;9.256;2023-02-08T01:53:44;10.17;;;5.27;;
12177;SDS011;6152;48.728;9.256;2023-02-08T01:56:14;6.37;;;4.07;;
12177;SDS011;6152;48.728;9.256;2023-02-08T01:58:48;9.03;;;4.90;;
12177;SDS011;6152;48.728;9.256;2023-02-08T02:01:17;10.10;;;5.13;;
12177;SDS011;6152;48.728;9.256;2023-02-08T02:03:43;7.53;;;4.50;;
12177;SDS011;6152;48.728;9.256;2023-02-08T02:06:15;7.40;;;4.27;;
12177;SDS011;6152;48.728;9.256;2023-02-08T02:09:02;6.60;;;4.57;;
12177;SDS011;6152;48.728;9.256;2023-02-08T02:11:40;7.63;;;4.17;;
12177;SDS011;6152;48.728;9.256;2023-02-08T02:14:08;6.63;;;4.57;;
12177;SDS011;6152;48.728;9.256;2023-02-08T02:16:35;7.70;;;4.50;;
12177;SDS011;6152;48.728;9.256;2023-02-08T02:19:01;7.67;;;4.63;;
12177;SDS011;6152;48.728;9.256;2023-02-08T02:30:20;7.93;;;4.60;;
12177;SDS011;6152;48.728;9.256;2023-02-08T02:43:32;8.70;;;4.87;;
12177;SDS011;6152;48.728;9.256;2023-02-08T02:46:32;9.27;;;5.50;;
12177;SDS011;6152;48.728;9.256;2023-02-08T02:49:16;9.77;;;4.87;;
12177;SDS011;6152;48.728;9.256;2023-02-08T02:51:55;7.93;;;5.37;;
12177;SDS011;6152;48.728;9.256;2023-02-08T02:54:39;10.60;;;5.03;;
12177;SDS011;6152;48.728;9.256;2023-02-08T02:57:14;7.53;;;5.00;;
12177;SDS011;6152;48.728;9.256;2023-02-08T02:59:43;9.67;;;5.77;;
12177;SDS011;6152;48.728;9.256;2023-02-08T03:02:11;10.93;;;5.50;;
12177;SDS011;6152;48.728;9.256;2023-02-08T03:20:56;9.00;;;5.10;;
12177;SDS011;6152;48.728;9.256;2023-02-08T03:23:33;8.13;;;4.60;;
12177;SDS011;6152;48.728;9.256;2023-02-08T03:28:53;8.80;;;4.97;;
12177;SDS011;6152;48.728;9.256;2023-02-08T03:31:38;9.20;;;5.33;;
12177;SDS011;6152;48.728;9.256;2023-02-08T03:36:41;10.40;;;5.53;;
12177;SDS011;6152;48.728;9.256;2023-02-08T03:39:17;8.27;;;5.07;;
12177;SDS011;6152;48.728;9.256;2023-02-08T03:41:48;8.67;;;5.37;;
12177;SDS011;6152;48.728;9.256;2023-02-08T03:44:22;9.80;;;5.17;;
12177;SDS011;6152;48.728;9.256;2023-02-08T03:46:59;10.40;;;5.27;;
12177;SDS011;6152;48.728;9.256;2023-02-08T03:49:40;10.23;;;5.20;;
12177;SDS011;6152;48.728;9.256;2023-02-08T03:52:09;9.40;;;5.47;;
12177;SDS011;6152;48.728;9.256;2023-02-08T03:54:38;8.67;;;4.97;;
12177;SDS011;6152;48.728;9.256;2023-02-08T03:57:15;8.87;;;4.93;;
12177;SDS011;6152;48.728;9.256;2023-02-08T03:59:54;9.53;;;5.40;;
12177;SDS011;6152;48.728;9.256;2023-02-08T04:02:25;8.83;;;5.13;;
12177;SDS011;6152;48.728;9.256;2023-02-08T04:04:54;9.90;;;5.23;;
12177;SDS011;6152;48.728;9.256;2023-02-08T04:07:22;10.73;;;5.67;;
12177;SDS011;6152;48.728;9.256;2023-02-08T04:09:49;9.30;;;5.07;;
12177;SDS011;6152;48.728;9.256;2023-02-08T04:12:15;9.77;;;4.90;;
12177;SDS011;6152;48.728;9.256;2023-02-08T04:14:41;9.80;;;5.60;;
12177;SDS011;6152;48.728;9.256;2023-02-08T04:17:07;8.40;;;5.27;;
12177;SDS011;6152;48.728;9.256;2023-02-08T04:19:33;13.37;;;5.33;;
12177;SDS011;6152;48.728;9.256;2023-02-08T04:21:59;10.73;;;5.70;;
12177;SDS011;6152;48.728;9.256;2023-02-08T04:24:25;9.03;;;5.40;;
12177;SDS011;6152;48.728;9.256;2023-02-08T04:26:51;13.63;;;5.77;;
12177;SDS011;6152;48.728;9.256;2023-02-08T04:29:17;8.03;;;5.17;;
12177;SDS011;6152;48.728;9.256;2023-02-08T04:31:43;10.73;;;5.17;;
12177;SDS011;6152;48.728;9.256;2023-02-08T04:34:09;9.60;;;5.30;;
12177;SDS011;6152;48.728;9.256;2023-02-08T04:36:36;9.87;;;5.67;;
12177;SDS011;6152;48.728;9.256;2023-02-08T04:39:02;10.77;;;5.77;;
12177;SDS011;6152;48.728;9.256;2023-02-08T04:41:28;8.43;;;5.07;;
12177;SDS011;6152;48.728;9.256;2023-02-08T04:43:54;13.33;;;6.57;;
12177;SDS011;6152;48.728;9.256;2023-02-08T04:46:20;9.93;;;5.37;;
12177;SDS011;6152;48.728;9.256;2023-02-08T04:48:46;10.00;;;5.20;;
12177;SDS011;6152;48.728;9.256;2023-02-08T04:51:12;9.50;;;5.00;;
12177;SDS011;6152;48.728;9.256;2023-02-08T04:53:38;10.07;;;5.40;;
12177;SDS011;6152;48.728;9.256;2023-02-08T04:56:05;12.03;;;5.50;;
12177;SDS011;6152;48.728;9.256;2023-02-08T04:58:31;8.03;;;4.90;;
12177;SDS011;6152;48.728;9.256;2023-02-08T05:00:57;7.97;;;5.13;;
12177;SDS011;6152;48.728;9.256;2023-02-08T05:03:23;10.37;;;5.73;;
12177;SDS011;6152;48.728;9.256;2023-02-08T05:05:58;9.03;;;5.30;;
12177;SDS011;6152;48.728;9.256;2023-02-08T05:08:25;10.67;;;5.67;;
12177;SDS011;6152;48.728;9.256;2023-02-08T05:10:52;12.00;;;5.53;;
12177;SDS011;6152;48.728;9.256;2023-02-08T05:13:18;8.27;;;5.33;;
12177;SDS011;6152;48.728;9.256;2023-02-08T05:15:44;8.93;;;5.00;;
12177;SDS011;6152;48.728;9.256;2023-02-08T05:18:10;9.40;;;5.97;;
12177;SDS011;6152;48.728;9.256;2023-02-08T05:20:36;9.20;;;6.03;;
12177;SDS011;6152;48.728;9.256;2023-02-08T05:23:02;11.27;;;6.30;;
12177;SDS011;6152;48.728;9.256;2023-02-08T05:25:29;9.53;;;5.93;;
12177;SDS011;6152;48.728;9.256;2023-02-08T05:27:56;12.07;;;6.90;;
12177;SDS011;6152;48.728;9.256;2023-02-08T05:30:23;10.97;;;5.90;;
12177;SDS011;6152;48.728;9.256;2023-02-08T05:32:49;10.30;;;6.03;;
12177;SDS011;6152;48.728;9.256;2023-02-08T05:35:15;10.40;;;6.17;;
12177;SDS011;6152;48.728;9.256;2023-02-08T05:37:41;10.23;;;5.70;;
12177;SDS011;6152;48.728;9.256;2023-02-08T05:40:07;12.57;;;5.63;;
12177;SDS011;6152;48.728;9.256;2023-02-08T05:42:35;12.33;;;6.30;;
12177;SDS011;6152;48.728;9.256;2023-02-08T05:45:01;10.93;;;6.07;;
12177;SDS011;6152;48.728;9.256;2023-02-08T05:47:27;11.47;;;6.07;;
12177;SDS011;6152;48.728;9.256;2023-02-08T05:49:53;9.93;;;5.77;;
12177;SDS011;6152;48.728;9.256;2023-02-08T05:52:19;12.67;;;5.80;;
12177;SDS011;6152;48.728;9.256;2023-02-08T05:54:45;9.83;;;6.00;;
12177;SDS011;6152;48.728;9.256;2023-02-08T05:57:11;11.03;;;6.13;;
12177;SDS011;6152;48.728;9.256;2023-02-08T05:59:37;10.07;;;5.50;;
12177;SDS011;6152;48.728;9.256;2023-02-08T06:02:03;10.90;;;6.10;;
12177;SDS011;6152;48.728;9.256;2023-02-08T06:04:30;10.23;;;5.90;;
12177;SDS011;6152;48.728;9.256;2023-02-08T06:06:56;11.23;;;6.00;;
12177;SDS011;6152;48.728;9.256;2023-02-08T06:09:22;10.73;;;5.60;;
12177;SDS011;6152;48.728;9.256;2023-02-08T06:11:48;9.97;;;5.87;;
12177;SDS011;6152;48.728;9.256;2023-02-08T06:14:14;10.93;;;6.60;;
12177;SDS011;6152;48.728;9.256;2023-02-08T06:16:40;13.23;;;6.43;;
12177;SDS011;6152;48.728;9.256;2023-02-08T06:19:06;11.17;;;5.90;;
12177;SDS011;6152;48.728;9.256;2023-02-08T06:21:32;9.87;;;5.47;;
12177;SDS011;6152;48.728;9.256;2023-02-08T06:23:58;13.03;;;5.87;;
12177;SDS011;6152;48.728;9.256;2023-02-08T06:26:24;9.60;;;5.60;;
12177;SDS011;6152;48.728;9.256;2023-02-08T06:28:50;9.63;;;5.83;;
12177;SDS011;6152;48.728;9.256;2023-02-08T06:31:16;12.13;;;6.27;;
12177;SDS011;6152;48.728;9.256;2023-02-08T06:33:43;11.50;;;6.30;;
12177;SDS011;6152;48.728;9.256;2023-02-08T06:36:09;10.23;;;6.20;;
12177;SDS011;6152;48.728;9.256;2023-02-08T06:38:35;10.13;;;6.27;;
12177;SDS011;6152;48.728;9.256;2023-02-08T06:41:01;16.10;;;6.40;;
12177;SDS011;6152;48.728;9.256;2023-02-08T06:43:27;11.43;;;6.23;;
12177;SDS011;6152;48.728;9.256;2023-02-08T06:45:53;14.43;;;6.00;;
12177;SDS011;6152;48.728;9.256;2023-02-08T06:48:19;13.70;;;6.57;;
12177;SDS011;6152;48.728;9.256;2023-02-08T06:50:45;11.30;;;7.47;;
12177;SDS011;6152;48.728;9.256;2023-02-08T06:53:11;11.60;;;6.80;;
12177;SDS011;6152;48.728;9.256;2023-02-08T06:55:38;13.73;;;6.33;;
12177;SDS011;6152;48.728;9.256;2023-02-08T06:58:05;10.17;;;6.20;;
12177;SDS011;6152;48.728;9.256;2023-02-08T07:00:31;11.20;;;6.03;;
12177;SDS011;6152;48.728;9.256;2023-02-08T07:02:57;11.43;;;6.67;;
12177;SDS011;6152;48.728;9.256;2023-02-08T07:05:24;10.90;;;6.40;;
12177;SDS011;6152;48.728;9.256;2023-02-08T07:07:50;13.73;;;6.87;;
12177;SDS011;6152;48.728;9.256;2023-02-08T07:10:17;12.10;;;6.63;;
12177;SDS011;6152;48.728;9.256;2023-02-08T07:12:43;10.43;;;6.17;;
12177;SDS011;6152;48.728;9.256;2023-02-08T07:15:09;11.77;;;6.87;;
12177;SDS011;6152;48.728;9.256;2023-02-08T07:17:37;15.03;;;7.07;;
12177;SDS011;6152;48.728;9.256;2023-02-08T07:20:04;13.50;;;6.83;;
12177;SDS011;6152;48.728;9.256;2023-02-08T07:22:30;12.10;;;6.13;;
12177;SDS011;6152;48.728;9.256;2023-02-08T07:24:56;10.90;;;6.43;;
12177;SDS011;6152;48.728;9.256;2023-02-08T07:27:22;11.90;;;6.67;;
12177;SDS011;6152;48.728;9.256;2023-02-08T07:29:48;10.13;;;6.23;;
12177;SDS011;6152;48.728;9.256;2023-02-08T07:32:14;12.10;;;6.87;;
12177;SDS011;6152;48.728;9.256;2023-02-08T07:34:41;12.60;;;7.10;;
12177;SDS011;6152;48.728;9.256;2023-02-08T07:37:07;9.03;;;5.50;;
12177;SDS011;6152;48.728;9.256;2023-02-08T07:39:33;11.83;;;6.00;;
12177;SDS011;6152;48.728;9.256;2023-02-08T07:41:59;10.50;;;6.30;;
12177;SDS011;6152;48.728;9.256;2023-02-08T07:44:25;10.20;;;5.63;;
12177;SDS011;6152;48.728;9.256;2023-02-08T07:46:51;12.20;;;6.13;;
12177;SDS011;6152;48.728;9.256;2023-02-08T07:49:18;9.50;;;5.10;;
12177;SDS011;6152;48.728;9.256;2023-02-08T07:51:44;11.00;;;5.80;;
12177;SDS011;6152;48.728;9.256;2023-02-08T07:54:10;11.63;;;6.50;;
12177;SDS011;6152;48.728;9.256;2023-02-08T07:56:36;9.07;;;5.97;;
12177;SDS011;6152;48.728;9.256;2023-02-08T07:59:02;12.47;;;7.10;;
12177;SDS011;6152;48.728;9.256;2023-02-08T08:01:28;12.77;;;6.17;;
12177;SDS011;6152;48.728;9.256;2023-02-08T08:03:54;11.07;;;5.80;;
12177;SDS011;6152;48.728;9.256;2023-02-08T08:06:21;12.23;;;7.23;;
12177;SDS011;6152;48.728;9.256;2023-02-08T08:08:48;13.53;;;6.50;;
12177;SDS011;6152;48.728;9.256;2023-02-08T08:11:14;10.57;;;6.53;;
12177;SDS011;6152;48.728;9.256;2023-02-08T08:13:42;13.80;;;6.60;;
12177;SDS011;6152;48.728;9.256;2023-02-08T08:16:08;11.27;;;6.20;;
12177;SDS011;6152;48.728;9.256;2023-02-08T08:18:34;11.60;;;6.73;;
12177;SDS011;6152;48.728;9.256;2023-02-08T08:21:01;11.20;;;6.23;;
12177;SDS011;6152;48.728;9.256;2023-02-08T08:23:27;11.40;;;6.83;;
12177;SDS011;6152;48.728;9.256;2023-02-08T08:25:53;13.50;;;7.37;;
12177;SDS011;6152;48.728;9.256;2023-02-08T08:28:20;12.63;;;6.73;;
12177;SDS011;6152;48.728;9.256;2023-02-08T08:30:46;14.67;;;7.03;;
12177;SDS011;6152;48.728;9.256;2023-02-08T08:33:12;14.17;;;7.80;;
12177;SDS011;6152;48.728;9.256;2023-02-08T08:35:38;14.03;;;7.27;;
12177;SDS011;6152;48.728;9.256;2023-02-08T08:38:05;12.17;;;7.23;;
12177;SDS011;6152;48.728;9.256;2023-02-08T08:40:31;10.77;;;6.90;;
12177;SDS011;6152;48.728;9.256;2023-02-08T08:42:57;15.70;;;7.73;;
12177;SDS011;6152;48.728;9.256;2023-02-08T08:45:23;13.50;;;8.07;;
12177;SDS011;6152;48.728;9.256;2023-02-08T08:47:49;15.20;;;8.03;;
12177;SDS011;6152;48.728;9.256;2023-02-08T08:50:16;14.13;;;7.13;;
12177;SDS011;6152;48.728;9.256;2023-02-08T08:52:42;10.47;;;6.17;;
12177;SDS011;6152;48.728;9.256;2023-02-08T08:55:08;13.87;;;7.57;;
12177;SDS011;6152;48.728;9.256;2023-02-08T08:57:34;9.57;;;6.23;;
12177;SDS011;6152;48.728;9.256;2023-02-08T09:00:00;16.90;;;7.33;;
12177;SDS011;6152;48.728;9.256;2023-02-08T09:02:27;12.70;;;6.90;;
12177;SDS011;6152;48.728;9.256;2023-02-08T09:04:53;11.90;;;7.20;;
12177;SDS011;6152;48.728;9.256;2023-02-08T09:07:19;11.50;;;6.40;;
12177;SDS011;6152;48.728;9.256;2023-02-08T09:09:45;13.10;;;6.73;;
12177;SDS011;6152;48.728;9.256;2023-02-08T09:12:12;11.77;;;6.47;;
12177;SDS011;6152;48.728;9.256;2023-02-08T09:14:42;12.17;;;6.80;;
12177;SDS011;6152;48.728;9.256;2023-02-08T09:17:09;11.73;;;6.53;;
12177;SDS011;6152;48.728;9.256;2023-02-08T09:19:36;12.27;;;6.70;;
12177;SDS011;6152;48.728;9.256;2023-02-08T09:22:04;14.53;;;7.27;;
12177;SDS011;6152;48.728;9.256;2023-02-08T09:24:31;14.17;;;7.33;;
12177;SDS011;6152;48.728;9.256;2023-02-08T09:26:58;17.23;;;8.65;;
12177;SDS011;6152;48.728;9.256;2023-02-08T09:29:24;10.65;;;6.47;;
12177;SDS011;6152;48.728;9.256;2023-02-08T09:31:53;13.52;;;7.72;;
12177;SDS011;6152;48.728;9.256;2023-02-08T09:34:20;12.25;;;6.88;;
12177;SDS011;6152;48.728;9.256;2023-02-08T09:36:46;11.13;;;5.50;;
12177;SDS011;6152;48.728;9.256;2023-02-08T09:39:14;10.05;;;6.65;;
12177;SDS011;6152;48.728;9.256;2023-02-08T09:41:58;10.80;;;7.25;;
12177;SDS011;6152;48.728;9.256;2023-02-08T09:47:33;14.15;;;7.13;;
12177;SDS011;6152;48.728;9.256;2023-02-08T09:53:05;10.13;;;6.15;;
12177;SDS011;6152;48.728;9.256;2023-02-08T09:55:49;12.07;;;7.25;;
12177;SDS011;6152;48.728;9.256;2023-02-08T09:58:25;14.07;;;6.07;;
12177;SDS011;6152;48.728;9.256;2023-02-08T10:01:01;10.82;;;6.45;;
12177;SDS011;6152;48.728;9.256;2023-02-08T10:03:38;8.45;;;6.25;;
12177;SDS011;6152;48.728;9.256;2023-02-08T10:06:09;9.43;;;6.28;;
12177;SDS011;6152;48.728;9.256;2023-02-08T10:08:40;9.20;;;6.38;;
12177;SDS011;6152;48.728;9.256;2023-02-08T10:22:07;11.15;;;7.70;;
12177;SDS011;6152;48.728;9.256;2023-02-08T10:31:18;12.80;;;8.52;;
12177;SDS011;6152;48.728;9.256;2023-02-08T10:34:02;10.90;;;7.82;;
12177;SDS011;6152;48.728;9.256;2023-02-08T10:36:41;10.05;;;8.27;;
12177;SDS011;6152;48.728;9.256;2023-02-08T10:39:17;13.77;;;8.35;;
12177;SDS011;6152;48.728;9.256;2023-02-08T10:41:48;10.52;;;8.70;;
12177;SDS011;6152;48.728;9.256;2023-02-08T10:47:17;10.15;;;8.25;;
12177;SDS011;6152;48.728;9.256;2023-02-08T10:50:05;10.73;;;8.70;;
12177;SDS011;6152;48.728;9.256;2023-02-08T10:52:51;8.77;;;7.88;;
12177;SDS011;6152;48.728;9.256;2023-02-08T10:55:18;9.35;;;8.35;;
12177;SDS011;6152;48.728;9.256;2023-02-08T10:57:46;10.38;;;9.32;;
12177;SDS011;6152;48.728;9.256;2023-02-08T11:00:26;8.93;;;8.02;;
12177;SDS011;6152;48.728;9.256;2023-02-08T11:02:55;12.40;;;8.63;;
12177;SDS011;6152;48.728;9.256;2023-02-08T11:10:30;10.05;;;8.10;;
12177;SDS011;6152;48.728;9.256;2023-02-08T11:16:00;7.72;;;6.40;;
12177;SDS011;6152;48.728;9.256;2023-02-08T11:18:30;7.00;;;5.50;;
12177;SDS011;6152;48.728;9.256;2023-02-08T11:21:09;8.05;;;6.25;;
12177;SDS011;6152;48.728;9.256;2023-02-08T11:23:49;7.82;;;6.20;;
12177;SDS011;6152;48.728;9.256;2023-02-08T11:29:04;6.80;;;6.03;;
12177;SDS011;6152;48.728;9.256;2023-02-08T11:34:23;11.13;;;7.53;;
12177;SDS011;6152;48.728;9.256;2023-02-08T11:36:58;8.52;;;5.85;;
12177;SDS011;6152;48.728;9.256;2023-02-08T11:39:44;9.43;;;6.20;;
12177;SDS011;6152;48.728;9.256;2023-02-08T11:42:35;7.32;;;5.22;;
12177;SDS011;6152;48.728;9.256;2023-02-08T11:45:05;12.10;;;6.88;;
12177;SDS011;6152;48.728;9.256;2023-02-08T11:47:33;10.68;;;6.35;;
12177;SDS011;6152;48.728;9.256;2023-02-08T11:50:02;9.90;;;5.43;;
12177;SDS011;6152;48.728;9.256;2023-02-08T11:52:34;9.00;;;5.43;;
12177;SDS011;6152;48.728;9.256;2023-02-08T11:55:18;11.25;;;6.72;;
12177;SDS011;6152;48.728;9.256;2023-02-08T12:00:24;7.30;;;5.95;;
12177;SDS011;6152;48.728;9.256;2023-02-08T12:02:58;8.10;;;5.22;;
12177;SDS011;6152;48.728;9.256;2023-02-08T12:05:34;6.57;;;5.15;;
12177;SDS011;6152;48.728;9.256;2023-02-08T12:16:46;6.85;;;4.22;;
12177;SDS011;6152;48.728;9.256;2023-02-08T12:21:45;8.35;;;4.80;;
12177;SDS011;6152;48.728;9.256;2023-02-08T12:41:29;6.43;;;5.38;;
12177;SDS011;6152;48.728;9.256;2023-02-08T12:54:35;6.85;;;5.05;;
12177;SDS011;6152;48.728;9.256;2023-02-08T12:57:21;6.95;;;5.53;;
12177;SDS011;6152;48.728;9.256;2023-02-08T12:59:53;6.53;;;5.38;;
12177;SDS011;6152;48.728;9.256;2023-02-08T13:02:23;6.63;;;5.57;;
12177;SDS011;6152;48.728;9.256;2023-02-08T13:04:51;6.45;;;5.07;;
12177;SDS011;6152;48.728;9.256;2023-02-08T13:07:25;7.57;;;5.28;;
12177;SDS011;6152;48.728;9.256;2023-02-08T13:10:02;6.82;;;5.13;;
12177;SDS011;6152;48.728;9.256;2023-02-08T13:12:51;6.28;;;5.15;;
12177;SDS011;6152;48.728;9.256;2023-02-08T13:15:40;6.68;;;4.93;;
12177;SDS011;6152;48.728;9.256;2023-02-08T13:18:23;5.70;;;4.80;;
12177;SDS011;6152;48.728;9.256;2023-02-08T13:21:05;8.02;;;5.47;;
12177;SDS011;6152;48.728;9.256;2023-02-08T13:24:00;9.73;;;5.15;;
12177;SDS011;6152;48.728;9.256;2023-02-08T13:26:50;7.10;;;4.82;;
12177;SDS011;6152;48.728;9.256;2023-02-08T13:29:17;5.78;;;4.40;;
12177;SDS011;6152;48.728;9.256;2023-02-08T13:31:56;7.47;;;4.78;;
12177;SDS011;6152;48.728;9.256;2023-02-08T13:34:33;7.25;;;5.00;;
12177;SDS011;6152;48.728;9.256;2023-02-08T13:37:05;8.20;;;5.13;;
12177;SDS011;6152;48.728;9.256;2023-02-08T13:42:34;9.52;;;5.25;;
12177;SDS011;6152;48.728;9.256;2023-02-08T13:45:05;7.32;;;5.45;;
12177;SDS011;6152;48.728;9.256;2023-02-08T13:47:47;7.65;;;5.13;;
12177;SDS011;6152;48.728;9.256;2023-02-08T13:53:10;6.80;;;4.82;;
12177;SDS011;6152;48.728;9.256;2023-02-08T14:01:16;8.13;;;5.65;;
12177;SDS011;6152;48.728;9.256;2023-02-08T14:06:32;10.80;;;5.73;;
12177;SDS011;6152;48.728;9.256;2023-02-08T14:09:22;10.10;;;5.67;;
12177;SDS011;6152;48.728;9.256;2023-02-08T14:14:39;10.67;;;5.87;;
12177;SDS011;6152;48.728;9.256;2023-02-08T14:19:37;9.93;;;5.63;;
12177;SDS011;6152;48.728;9.256;2023-02-08T14:24:39;10.43;;;6.63;;
12177;SDS011;6152;48.728;9.256;2023-02-08T14:27:27;12.17;;;6.47;;
12177;SDS011;6152;48.728;9.256;2023-02-08T14:32:41;11.80;;;6.03;;
12177;SDS011;6152;48.728;9.256;2023-02-08T14:35:26;10.77;;;6.43;;
12177;SDS011;6152;48.728;9.256;2023-02-08T14:43:28;12.00;;;6.43;;
12177;SDS011;6152;48.728;9.256;2023-02-08T14:45:56;11.37;;;6.40;;
12177;SDS011;6152;48.728;9.256;2023-02-08T14:48:51;10.13;;;6.27;;
12177;SDS011;6152;48.728;9.256;2023-02-08T14:51:21;11.87;;;6.37;;
12177;SDS011;6152;48.728;9.256;2023-02-08T14:53:55;11.60;;;6.47;;
12177;SDS011;6152;48.728;9.256;2023-02-08T14:56:32;12.17;;;6.63;;
12177;SDS011;6152;48.728;9.256;2023-02-08T14:59:16;13.63;;;7.37;;
12177;SDS011;6152;48.728;9.256;2023-02-08T15:01:58;11.70;;;6.53;;
12177;SDS011;6152;48.728;9.256;2023-02-08T15:04:40;14.07;;;6.73;;
12177;SDS011;6152;48.728;9.256;2023-02-08T15:07:22;9.73;;;6.60;;
12177;SDS011;6152;48.728;9.256;2023-02-08T15:10:04;11.77;;;7.33;;
12177;SDS011;6152;48.728;9.256;2023-02-08T15:12:39;12.77;;;6.73;;
12177;SDS011;6152;48.728;9.256;2023-02-08T15:15:22;11.50;;;6.67;;
12177;SDS011;6152;48.728;9.256;2023-02-08T15:17:55;10.73;;;5.93;;
12177;SDS011;6152;48.728;9.256;2023-02-08T15:20:23;13.68;;;6.60;;
12177;SDS011;6152;48.728;9.256;2023-02-08T15:25:27;12.93;;;7.53;;
12177;SDS011;6152;48.728;9.256;2023-02-08T15:28:01;12.98;;;7.18;;
12177;SDS011;6152;48.728;9.256;2023-02-08T15:30:40;13.43;;;7.20;;
12177;SDS011;6152;48.728;9.256;2023-02-08T15:33:14;13.38;;;6.97;;
12177;SDS011;6152;48.728;9.256;2023-02-08T15:35:45;12.47;;;7.00;;
12177;SDS011;6152;48.728;9.256;2023-02-08T15:38:22;11.52;;;7.13;;
12177;SDS011;6152;48.728;9.256;2023-02-08T15:40:58;14.57;;;7.83;;
12177;SDS011;6152;48.728;9.256;2023-02-08T15:43:33;13.30;;;7.07;;
12177;SDS011;6152;48.728;9.256;2023-02-08T15:46:02;12.27;;;7.23;;
12177;SDS011;6152;48.728;9.256;2023-02-08T15:48:30;13.77;;;7.10;;
12177;SDS011;6152;48.728;9.256;2023-02-08T15:50:57;17.77;;;9.30;;
12177;SDS011;6152;48.728;9.256;2023-02-08T15:53:25;14.03;;;8.07;;
12177;SDS011;6152;48.728;9.256;2023-02-08T15:55:56;18.60;;;10.37;;
12177;SDS011;6152;48.728;9.256;2023-02-08T15:58:29;14.77;;;7.83;;
12177;SDS011;6152;48.728;9.256;2023-02-08T16:01:01;18.93;;;9.17;;
12177;SDS011;6152;48.728;9.256;2023-02-08T16:03:30;14.67;;;8.83;;
12177;SDS011;6152;48.728;9.256;2023-02-08T16:05:58;15.70;;;7.87;;
12177;SDS011;6152;48.728;9.256;2023-02-08T16:08:30;13.10;;;7.77;;
12177;SDS011;6152;48.728;9.256;2023-02-08T16:13:27;13.10;;;7.77;;
12177;SDS011;6152;48.728;9.256;2023-02-08T16:16:13;15.33;;;8.03;;
12177;SDS011;6152;48.728;9.256;2023-02-08T16:24:16;12.00;;;7.33;;
12177;SDS011;6152;48.728;9.256;2023-02-08T16:27:02;14.33;;;7.57;;
12177;SDS011;6152;48.728;9.256;2023-02-08T16:29:34;13.47;;;8.50;;
12177;SDS011;6152;48.728;9.256;2023-02-08T16:35:25;14.23;;;8.20;;
12177;SDS011;6152;48.728;9.256;2023-02-08T16:37:57;14.33;;;8.13;;
12177;SDS011;6152;48.728;9.256;2023-02-08T16:43:18;12.77;;;7.77;;
12177;SDS011;6152;48.728;9.256;2023-02-08T16:48:36;18.47;;;9.30;;
12177;SDS011;6152;48.728;9.256;2023-02-08T16:51:05;27.67;;;12.80;;
12177;SDS011;6152;48.728;9.256;2023-02-08T16:53:35;48.23;;;21.13;;
12177;SDS011;6152;48.728;9.256;2023-02-08T16:56:01;42.47;;;19.63;;
12177;SDS011;6152;48.728;9.256;2023-02-08T16:58:27;29.07;;;14.73;;
12177;SDS011;6152;48.728;9.256;2023-02-08T17:00:53;32.07;;;16.87;;
12177;SDS011;6152;48.728;9.256;2023-02-08T17:03:19;26.73;;;12.83;;
12177;SDS011;6152;48.728;9.256;2023-02-08T17:05:45;23.97;;;13.07;;
12177;SDS011;6152;48.728;9.256;2023-02-08T17:08:14;19.97;;;11.97;;
12177;SDS011;6152;48.728;9.256;2023-02-08T17:10:41;18.27;;;10.43;;
12177;SDS011;6152;48.728;9.256;2023-02-08T17:13:08;15.33;;;8.80;;
12177;SDS011;6152;48.728;9.256;2023-02-08T17:15:35;17.77;;;9.83;;
12177;SDS011;6152;48.728;9.256;2023-02-08T17:18:02;18.00;;;9.07;;
12177;SDS011;6152;48.728;9.256;2023-02-08T17:20:32;15.93;;;9.07;;
12177;SDS011;6152;48.728;9.256;2023-02-08T17:23:00;19.17;;;10.80;;
12177;SDS011;6152;48.728;9.256;2023-02-08T17:25:28;15.90;;;9.57;;
12177;SDS011;6152;48.728;9.256;2023-02-08T17:27:57;14.20;;;9.40;;
12177;SDS011;6152;48.728;9.256;2023-02-08T17:33:00;15.47;;;8.93;;
12177;SDS011;6152;48.728;9.256;2023-02-08T17:35:28;17.77;;;9.80;;
12177;SDS011;6152;48.728;9.256;2023-02-08T17:37:55;15.97;;;9.20;;
12177;SDS011;6152;48.728;9.256;2023-02-08T17:40:26;17.90;;;9.33;;
12177;SDS011;6152;48.728;9.256;2023-02-08T17:42:56;16.73;;;9.13;;
12177;SDS011;6152;48.728;9.256;2023-02-08T17:45:26;17.63;;;9.83;;
12177;SDS011;6152;48.728;9.256;2023-02-08T17:47:53;16.40;;;8.57;;
12177;SDS011;6152;48.728;9.256;2023-02-08T17:50:23;17.17;;;9.43;;
12177;SDS011;6152;48.728;9.256;2023-02-08T17:52:49;17.97;;;9.90;;
12177;SDS011;6152;48.728;9.256;2023-02-08T17:55:15;16.17;;;8.80;;
12177;SDS011;6152;48.728;9.256;2023-02-08T17:57:42;18.30;;;9.60;;
12177;SDS011;6152;48.728;9.256;2023-02-08T18:00:16;15.40;;;9.40;;
12177;SDS011;6152;48.728;9.256;2023-02-08T18:02:45;17.83;;;9.43;;
12177;SDS011;6152;48.728;9.256;2023-02-08T18:05:13;17.80;;;9.13;;